Time;durP1;ratioP1;P1;durP2;ratioP2;P2;SDS_P1;SDS_P2;PMS_P1;PMS_P2;Temp;Humidity;BMP_temperature;BMP_pressure;BME280_temperature;BME280_humidity;BME280_pressure;Samples;Min_cycle;Max_cycle;Signal;HPM_P1;HPM_P2
2022/01/03 00:01:09;;;;;;;13.63;2.72;;;8.20;99.90;;;;;;4926127;29;20024;-94
2022/01/03 00:03:35;;;;;;;17.38;2.95;;;8.20;99.90;;;;;;4928066;29;20119;-95
2022/01/03 00:06:02;;;;;;;26.52;5.43;;;8.20;99.90;;;;;;4930716;29;20473;-95
2022/01/03 00:08:30;;;;;;;25.95;2.85;;;8.20;99.90;;;;;;4929216;29;20052;-94
2022/01/03 00:10:58;;;;;;;23.77;3.67;;;8.10;99.90;;;;;;4929481;29;20035;-96
2022/01/03 00:13:26;;;;;;;15.85;2.50;;;8.10;99.90;;;;;;4947119;29;20039;-95
2022/01/03 00:15:55;;;;;;;24.35;2.88;;;8.10;99.90;;;;;;4930344;29;20078;-95
2022/01/03 00:18:22;;;;;;;15.68;2.00;;;8.10;99.90;;;;;;4913046;29;20023;-94
2022/01/03 00:20:58;;;;;;;21.92;2.80;;;8.10;99.90;;;;;;4929567;29;20035;-95
2022/01/03 00:23:32;;;;;;;22.08;3.38;;;8.10;99.90;;;;;;4929192;29;20020;-95
2022/01/03 00:26:02;;;;;;;30.45;3.50;;;8.10;99.90;;;;;;4929234;29;20040;-95
2022/01/03 00:28:39;;;;;;;22.63;2.80;;;8.10;99.90;;;;;;4929970;29;20028;-96
2022/01/03 00:31:11;;;;;;;26.27;3.83;;;8.00;99.90;;;;;;4934153;29;20019;-96
2022/01/03 00:33:38;;;;;;;27.27;4.30;;;8.10;99.90;;;;;;4951092;29;20054;-95
2022/01/03 00:36:05;;;;;;;23.70;3.33;;;8.10;99.90;;;;;;4931469;29;20134;-94
2022/01/03 00:38:34;;;;;;;20.60;2.78;;;8.10;99.90;;;;;;4928582;29;20059;-94
2022/01/03 00:41:06;;;;;;;15.77;2.83;;;8.00;99.90;;;;;;4933162;29;20074;-95
2022/01/03 00:43:32;;;;;;;22.20;3.90;;;8.00;99.90;;;;;;4930370;29;20032;-96
2022/01/03 00:46:01;;;;;;;16.45;2.60;;;8.10;99.90;;;;;;4916808;29;20034;-96
2022/01/03 00:48:27;;;;;;;17.48;3.17;;;8.10;99.90;;;;;;4927013;29;20058;-94
2022/01/03 00:50:52;;;;;;;17.63;2.70;;;8.10;99.90;;;;;;4929953;29;20020;-94
2022/01/03 00:53:21;;;;;;;27.70;2.92;;;8.00;99.90;;;;;;4931895;29;20035;-95
2022/01/03 00:56:02;;;;;;;17.77;2.40;;;8.00;99.90;;;;;;4929006;29;20043;-94
2022/01/03 00:58:35;;;;;;;23.48;3.47;;;8.10;99.90;;;;;;4926042;29;20046;-95
2022/01/03 01:01:05;;;;;;;22.23;2.70;;;8.00;99.90;;;;;;4949723;29;20048;-94
2022/01/03 01:03:41;;;;;;;13.60;2.25;;;8.00;99.90;;;;;;4934802;29;20036;-96
2022/01/03 01:06:10;;;;;;;20.85;2.47;;;8.00;99.90;;;;;;4921573;29;20130;-96
2022/01/03 01:08:37;;;;;;;27.80;2.13;;;8.10;99.90;;;;;;4934674;29;20044;-95
2022/01/03 01:11:07;;;;;;;17.60;2.50;;;8.10;99.90;;;;;;4953632;29;20023;-96
2022/01/03 01:13:36;;;;;;;20.38;2.92;;;8.10;99.90;;;;;;4938660;29;20023;-96
2022/01/03 01:16:07;;;;;;;20.52;2.53;;;8.10;99.90;;;;;;4937624;29;20039;-95
2022/01/03 01:18:37;;;;;;;17.70;3.50;;;8.10;99.90;;;;;;4939119;29;20007;-94
2022/01/03 01:21:06;;;;;;;18.15;2.10;;;8.10;99.90;;;;;;4986548;23;20027;-94
2022/01/03 01:23:34;;;;;;;21.50;3.08;;;8.10;99.90;;;;;;4975664;28;20051;-95
2022/01/03 01:28:45;;;;;;;18.42;2.85;;;8.00;99.90;;;;;;4987733;28;20085;-95
2022/01/03 01:31:17;;;;;;;26.42;3.28;;;8.00;99.90;;;;;;4966191;28;20037;-94
2022/01/03 01:33:45;;;;;;;17.52;2.05;;;7.90;99.90;;;;;;4972101;28;20035;-95
2022/01/03 01:36:13;;;;;;;17.67;3.15;;;8.00;99.90;;;;;;4967809;28;20038;-93
2022/01/03 01:38:40;;;;;;;26.25;3.75;;;8.00;99.90;;;;;;4966218;28;20117;-95
2022/01/03 01:41:09;;;;;;;19.17;2.92;;;7.90;99.90;;;;;;4960421;29;20038;-93
2022/01/03 01:43:39;;;;;;;15.43;2.47;;;7.90;99.90;;;;;;4946603;29;20031;-94
2022/01/03 01:46:09;;;;;;;17.43;2.10;;;7.90;99.90;;;;;;4947271;29;20031;-95
2022/01/03 01:48:38;;;;;;;23.83;2.90;;;8.00;99.90;;;;;;4933170;29;20280;-96
2022/01/03 01:51:05;;;;;;;18.90;2.63;;;8.00;99.90;;;;;;4928123;29;20064;-95
2022/01/03 01:53:37;;;;;;;10.75;1.92;;;7.90;99.90;;;;;;4929401;29;20043;-95
2022/01/03 01:56:08;;;;;;;14.95;2.00;;;8.00;99.90;;;;;;4927813;29;20036;-96
2022/01/03 01:59:05;;;;;;;23.23;3.55;;;8.00;99.90;;;;;;4925764;29;20512;-96
2022/01/03 02:01:42;;;;;;;18.33;1.95;;;8.00;99.90;;;;;;4912925;29;20040;-94
2022/01/03 02:04:27;;;;;;;16.05;2.17;;;8.00;99.90;;;;;;4926345;29;20122;-95
2022/01/03 02:07:02;;;;;;;21.45;3.40;;;8.00;99.90;;;;;;4927895;29;20028;-95
2022/01/03 02:10:13;;;;;;;18.15;2.25;;;8.00;99.90;;;;;;4931246;29;20038;-94
2022/01/03 02:12:46;;;;;;;8.18;1.98;;;8.00;99.90;;;;;;4929461;29;20020;-96
2022/01/03 02:15:17;;;;;;;16.85;3.78;;;8.00;99.90;;;;;;4929706;29;20047;-96
2022/01/03 02:17:48;;;;;;;19.67;2.40;;;8.00;99.90;;;;;;4930167;29;20082;-93
2022/01/03 02:20:25;;;;;;;16.83;2.17;;;7.90;99.90;;;;;;4929108;29;20031;-94
2022/01/03 02:22:55;;;;;;;19.38;2.50;;;8.00;99.90;;;;;;4930217;29;20107;-94
2022/01/03 02:25:23;;;;;;;11.43;2.05;;;8.00;99.90;;;;;;4930820;29;20031;-94
2022/01/03 02:27:52;;;;;;;20.58;3.03;;;8.00;99.90;;;;;;4914208;29;20034;-96
2022/01/03 02:30:24;;;;;;;14.25;1.92;;;8.00;99.90;;;;;;4928273;29;20171;-96
2022/01/03 02:32:50;;;;;;;19.20;2.40;;;8.00;99.90;;;;;;4928139;29;20024;-95
2022/01/03 02:35:19;;;;;;;15.18;2.83;;;8.00;99.90;;;;;;4930228;29;20062;-95
2022/01/03 02:37:47;;;;;;;25.10;3.35;;;8.00;99.90;;;;;;4928787;29;20030;-96
2022/01/03 02:40:13;;;;;;;21.38;2.50;;;7.90;99.90;;;;;;4927478;29;20031;-96
2022/01/03 02:42:41;;;;;;;29.98;4.88;;;7.90;99.90;;;;;;4927713;29;20081;-96
2022/01/03 02:45:36;;;;;;;14.23;3.38;;;7.90;99.90;;;;;;4915403;29;20032;-96
2022/01/03 02:48:07;;;;;;;26.02;2.47;;;7.80;99.90;;;;;;4930861;29;20047;-95
2022/01/03 02:50:35;;;;;;;27.40;2.85;;;7.80;99.90;;;;;;4948296;29;20024;-94
2022/01/03 02:53:01;;;;;;;18.60;3.47;;;7.80;99.90;;;;;;4929520;29;20028;-94
2022/01/03 02:55:27;;;;;;;17.30;2.30;;;7.80;99.90;;;;;;4915435;29;20054;-95
2022/01/03 02:58:07;;;;;;;34.97;3.35;;;7.70;99.90;;;;;;4934607;29;20032;-96
2022/01/03 03:00:37;;;;;;;23.20;2.88;;;7.70;99.90;;;;;;4931338;29;20050;-93
2022/01/03 03:03:03;;;;;;;27.35;3.28;;;7.70;99.90;;;;;;4931278;29;20032;-93
2022/01/03 03:05:29;;;;;;;24.48;3.10;;;7.70;99.90;;;;;;4927400;29;20054;-96
2022/01/03 03:07:56;;;;;;;27.20;3.28;;;7.60;99.90;;;;;;4930114;29;20028;-92
2022/01/03 03:10:24;;;;;;;24.70;3.58;;;7.60;99.90;;;;;;4928223;29;20047;-95
2022/01/03 03:12:50;;;;;;;25.75;3.75;;;7.60;99.90;;;;;;4939141;29;20035;-94
2022/01/03 03:15:17;;;;;;;25.60;3.22;;;7.60;99.90;;;;;;4932935;29;20072;-95
2022/01/03 03:17:45;;;;;;;28.48;2.50;;;7.60;99.90;;;;;;4934981;29;20027;-95
2022/01/03 03:20:25;;;;;;;23.23;2.97;;;7.60;99.90;;;;;;4937766;29;20016;-92
2022/01/03 03:22:53;;;;;;;20.58;3.20;;;7.60;99.90;;;;;;4934783;29;20048;-95
2022/01/03 03:25:30;;;;;;;22.45;2.92;;;7.50;99.90;;;;;;4939009;29;20051;-95
2022/01/03 03:28:01;;;;;;;14.13;2.60;;;7.50;99.90;;;;;;4936082;29;20024;-95
2022/01/03 03:30:33;;;;;;;21.00;3.67;;;7.50;99.90;;;;;;4935188;29;20055;-96
2022/01/03 03:33:24;;;;;;;25.17;3.53;;;7.50;99.90;;;;;;4935545;29;20146;-95
2022/01/03 03:35:51;;;;;;;19.60;2.33;;;7.50;99.90;;;;;;4917812;29;20035;-95
2022/01/03 03:38:19;;;;;;;16.63;2.13;;;7.50;99.90;;;;;;4935863;29;20031;-95
2022/01/03 03:40:51;;;;;;;24.27;4.07;;;7.50;99.90;;;;;;4938983;29;20031;-96
2022/01/03 03:43:17;;;;;;;25.92;3.38;;;7.60;99.90;;;;;;4939749;29;20036;-95
2022/01/03 03:45:48;;;;;;;18.95;2.40;;;7.60;99.90;;;;;;4937792;29;20062;-94
2022/01/03 03:48:20;;;;;;;17.05;2.40;;;7.60;99.90;;;;;;4938608;29;20047;-95
2022/01/03 03:50:46;;;;;;;17.77;2.30;;;7.60;99.90;;;;;;4933013;29;20032;-95
2022/01/03 03:53:12;;;;;;;30.42;3.97;;;7.60;99.90;;;;;;4927965;29;20035;-95
2022/01/03 03:55:38;;;;;;;21.90;2.95;;;7.60;99.90;;;;;;4928358;29;20043;-95
2022/01/03 03:58:06;;;;;;;22.00;3.47;;;7.70;99.90;;;;;;4928925;29;20027;-94
2022/01/03 04:00:33;;;;;;;16.15;2.72;;;7.60;99.90;;;;;;4927549;29;20032;-95
2022/01/03 04:02:59;;;;;;;13.38;2.85;;;7.70;99.90;;;;;;4926759;29;20342;-93
2022/01/03 04:05:25;;;;;;;18.52;3.72;;;7.70;99.90;;;;;;4924706;29;20028;-93
2022/01/03 04:07:51;;;;;;;22.35;2.70;;;7.80;99.90;;;;;;4924977;29;20027;-94
2022/01/03 04:10:17;;;;;;;26.50;4.15;;;7.80;99.90;;;;;;4925279;29;20027;-96
2022/01/03 04:12:44;;;;;;;30.52;3.17;;;7.80;99.90;;;;;;4924276;29;20500;-95
2022/01/03 04:15:11;;;;;;;16.85;2.95;;;7.80;99.90;;;;;;4923139;29;20031;-96
2022/01/03 04:17:37;;;;;;;28.63;3.10;;;7.80;99.90;;;;;;4924597;29;20126;-94
2022/01/03 04:20:04;;;;;;;30.42;5.05;;;7.80;99.90;;;;;;4922804;29;20032;-94
2022/01/03 04:22:31;;;;;;;25.38;4.32;;;7.70;99.90;;;;;;4923354;29;20393;-95
2022/01/03 04:24:56;;;;;;;21.77;3.75;;;7.80;99.90;;;;;;4924213;29;20028;-94
2022/01/03 04:27:24;;;;;;;25.30;2.90;;;7.80;99.90;;;;;;4925809;29;20537;-95
2022/01/03 04:29:51;;;;;;;21.50;4.05;;;7.80;99.90;;;;;;4949111;29;20027;-96
2022/01/03 04:32:21;;;;;;;20.45;3.25;;;7.90;99.90;;;;;;4932125;29;20128;-95
2022/01/03 04:34:47;;;;;;;16.67;3.42;;;7.80;99.90;;;;;;4932693;29;20032;-94
2022/01/03 04:37:15;;;;;;;25.02;3.17;;;7.80;99.90;;;;;;4927861;29;20034;-94
2022/01/03 04:39:41;;;;;;;19.23;2.40;;;7.90;99.90;;;;;;4925461;29;20032;-94
2022/01/03 04:42:07;;;;;;;24.48;3.25;;;7.90;99.90;;;;;;4930479;29;20019;-94
2022/01/03 04:44:33;;;;;;;28.83;3.13;;;7.90;99.90;;;;;;4931886;29;20020;-95
2022/01/03 04:47:03;;;;;;;24.90;3.05;;;7.80;99.90;;;;;;4935770;29;20043;-96
2022/01/03 04:49:32;;;;;;;17.48;3.55;;;7.90;99.90;;;;;;4937748;29;20079;-95
2022/01/03 04:51:58;;;;;;;16.77;2.60;;;7.80;99.90;;;;;;4942016;29;20027;-95
2022/01/03 04:54:27;;;;;;;30.15;3.13;;;7.80;99.90;;;;;;4955088;29;20038;-95
2022/01/03 04:56:57;;;;;;;23.67;2.50;;;7.80;99.90;;;;;;4938283;29;20028;-94
2022/01/03 04:59:23;;;;;;;17.40;3.20;;;7.80;99.90;;;;;;4950539;29;20099;-96
2022/01/03 05:01:51;;;;;;;27.30;2.90;;;7.70;99.90;;;;;;4950849;29;20040;-96
2022/01/03 05:04:17;;;;;;;24.95;3.00;;;7.70;99.90;;;;;;4931576;29;20043;-93
2022/01/03 05:06:48;;;;;;;23.63;2.95;;;7.70;99.90;;;;;;4949318;29;20028;-95
2022/01/03 05:09:16;;;;;;;17.58;2.75;;;7.70;99.90;;;;;;4932828;29;20047;-96
2022/01/03 05:11:43;;;;;;;26.15;3.00;;;7.70;99.90;;;;;;4932235;29;20048;-95
2022/01/03 05:14:09;;;;;;;20.67;3.30;;;7.70;99.90;;;;;;4946155;29;20047;-95
2022/01/03 05:16:35;;;;;;;15.77;2.55;;;7.70;99.90;;;;;;4944946;29;20032;-95
2022/01/03 05:19:03;;;;;;;14.35;2.35;;;7.70;99.90;;;;;;4930084;29;20028;-94
2022/01/03 05:21:28;;;;;;;17.15;3.00;;;7.60;99.90;;;;;;4927724;29;20027;-95
2022/01/03 05:23:55;;;;;;;24.58;2.53;;;7.60;99.90;;;;;;4961296;28;20089;-94
2022/01/03 05:26:21;;;;;;;18.08;2.08;;;7.60;99.90;;;;;;4960842;29;20027;-96
2022/01/03 05:28:48;;;;;;;22.98;3.13;;;7.60;99.90;;;;;;4948170;29;20165;-95
2022/01/03 05:31:14;;;;;;;24.77;3.33;;;7.60;99.90;;;;;;4965899;29;20091;-95
2022/01/03 05:33:40;;;;;;;19.33;3.95;;;7.50;99.90;;;;;;4965268;29;20038;-95
2022/01/03 05:36:09;;;;;;;20.27;3.85;;;7.50;99.90;;;;;;4966493;29;20039;-94
2022/01/03 05:38:35;;;;;;;23.27;2.85;;;7.50;99.90;;;;;;4965643;29;20034;-95
2022/01/03 05:41:02;;;;;;;19.85;3.58;;;7.50;99.90;;;;;;4948887;28;20079;-96
2022/01/03 05:43:34;;;;;;;22.50;3.00;;;7.50;99.90;;;;;;4967739;29;20031;-94
2022/01/03 05:46:00;;;;;;;25.70;3.13;;;7.40;99.90;;;;;;4949757;29;20193;-95
2022/01/03 05:48:28;;;;;;;34.30;3.58;;;7.40;99.90;;;;;;4967260;28;20038;-95
2022/01/03 05:50:55;;;;;;;20.30;2.60;;;7.50;99.90;;;;;;4970529;28;20039;-96
2022/01/03 05:53:21;;;;;;;26.38;5.68;;;7.50;99.90;;;;;;4970758;28;20035;-95
2022/01/03 05:55:49;;;;;;;21.55;2.90;;;7.40;99.90;;;;;;4971761;28;20035;-96
2022/01/03 05:58:19;;;;;;;19.73;2.85;;;7.40;99.90;;;;;;4983244;28;20039;-94
2022/01/03 06:00:46;;;;;;;21.73;2.33;;;7.40;99.90;;;;;;4971862;28;20042;-94
2022/01/03 06:03:14;;;;;;;17.10;2.30;;;7.50;99.90;;;;;;4952149;28;20085;-95
2022/01/03 06:06:04;;;;;;;20.63;2.63;;;7.50;99.90;;;;;;4968952;28;20087;-94
2022/01/03 06:08:28;;;;;;;32.45;3.33;;;7.50;99.90;;;;;;4986552;28;20102;-95
2022/01/03 06:10:58;;;;;;;26.42;2.80;;;7.50;99.90;;;;;;4966492;28;20023;-96
2022/01/03 06:13:24;;;;;;;15.98;3.05;;;7.50;99.90;;;;;;4966051;28;20074;-95
2022/01/03 06:15:51;;;;;;;15.32;2.33;;;7.50;99.90;;;;;;4950323;28;20114;-95
2022/01/03 06:18:22;;;;;;;25.45;3.90;;;7.60;99.90;;;;;;4968246;28;20031;-96
2022/01/03 06:20:52;;;;;;;34.15;3.17;;;7.60;99.90;;;;;;4969537;28;20106;-95
2022/01/03 06:23:20;;;;;;;26.13;3.70;;;7.60;99.90;;;;;;4957744;28;20089;-95
2022/01/03 06:25:55;;;;;;;23.15;2.78;;;7.60;99.90;;;;;;4994369;28;20026;-95
2022/01/03 06:28:20;;;;;;;26.70;2.78;;;7.50;99.90;;;;;;4962927;28;20039;-94
2022/01/03 06:30:47;;;;;;;24.30;3.53;;;7.50;99.90;;;;;;4978487;28;20034;-94
2022/01/03 06:33:20;;;;;;;24.80;4.35;;;7.50;99.90;;;;;;4960404;28;20045;-96
2022/01/03 06:35:52;;;;;;;19.52;3.00;;;7.50;99.90;;;;;;4993592;28;20515;-95
2022/01/03 06:38:22;;;;;;;23.77;3.03;;;7.50;99.90;;;;;;4977272;28;20033;-94
2022/01/03 06:40:48;;;;;;;20.70;3.07;;;7.40;99.90;;;;;;4971682;28;20033;-94
2022/01/03 06:43:15;;;;;;;28.67;3.95;;;7.40;99.90;;;;;;4977834;28;20034;-95
2022/01/03 06:45:45;;;;;;;19.45;2.75;;;7.40;99.90;;;;;;4977954;28;20058;-96
2022/01/03 06:48:11;;;;;;;21.17;2.88;;;7.30;99.90;;;;;;4996106;28;20118;-93
2022/01/03 06:50:40;;;;;;;37.95;4.32;;;7.30;99.90;;;;;;4978353;28;20058;-96
2022/01/03 06:53:09;;;;;;;22.05;2.85;;;7.30;99.90;;;;;;4980998;28;20077;-95
2022/01/03 06:55:42;;;;;;;20.27;2.85;;;7.30;99.90;;;;;;4980310;28;20035;-95
2022/01/03 06:58:16;;;;;;;22.30;3.45;;;7.20;99.90;;;;;;4976268;28;20043;-95
2022/01/03 07:00:44;;;;;;;24.67;3.50;;;7.20;99.90;;;;;;4996106;28;20026;-96
2022/01/03 07:03:12;;;;;;;24.98;2.95;;;7.20;99.90;;;;;;4980139;28;20030;-95
2022/01/03 07:05:43;;;;;;;22.98;3.92;;;7.20;99.90;;;;;;4993550;28;20029;-95
2022/01/03 07:08:09;;;;;;;11.00;1.90;;;7.20;99.90;;;;;;4975639;28;20015;-93
2022/01/03 07:10:40;;;;;;;23.08;2.72;;;7.20;99.90;;;;;;4977320;28;20007;-95
2022/01/03 07:13:26;;;;;;;23.25;3.60;;;7.30;99.90;;;;;;4982137;28;20015;-95
2022/01/03 07:18:56;;;;;;;15.63;2.15;;;7.20;99.90;;;;;;4993420;28;20038;-96
2022/01/03 07:21:27;;;;;;;14.68;3.78;;;7.30;99.90;;;;;;4956846;28;20031;-95
2022/01/03 07:23:59;;;;;;;24.73;2.78;;;7.20;99.90;;;;;;4971415;29;20031;-96
2022/01/03 07:26:27;;;;;;;19.98;2.17;;;7.30;99.90;;;;;;4953333;29;20047;-95
2022/01/03 07:28:55;;;;;;;14.65;2.30;;;7.30;99.90;;;;;;4971017;29;20496;-95
2022/01/03 07:31:23;;;;;;;22.48;3.10;;;7.30;99.90;;;;;;4959536;28;20019;-95
2022/01/03 07:33:49;;;;;;;16.90;2.10;;;7.30;99.90;;;;;;4953598;29;20089;-96
2022/01/03 07:36:16;;;;;;;21.60;2.28;;;7.30;99.90;;;;;;4952363;29;20030;-94
2022/01/03 07:38:46;;;;;;;19.90;2.65;;;7.20;99.90;;;;;;4951183;29;20042;-96
2022/01/03 07:41:12;;;;;;;15.70;2.47;;;7.20;99.90;;;;;;4950514;29;20051;-95
2022/01/03 07:43:39;;;;;;;25.13;2.47;;;7.20;99.90;;;;;;4948303;29;20019;-95
2022/01/03 07:46:05;;;;;;;18.10;3.05;;;7.20;99.90;;;;;;4947166;29;20039;-94
2022/01/03 07:48:31;;;;;;;18.33;2.25;;;7.20;99.90;;;;;;4946247;29;20047;-94
2022/01/03 07:50:57;;;;;;;24.48;3.25;;;7.20;99.90;;;;;;4944149;29;20023;-94
2022/01/03 07:53:22;;;;;;;17.42;2.20;;;7.10;99.90;;;;;;4946545;29;20030;-96
2022/01/03 07:55:50;;;;;;;25.90;2.63;;;7.10;99.90;;;;;;4946003;29;20078;-96
2022/01/03 07:58:17;;;;;;;15.63;1.90;;;7.00;99.90;;;;;;4961997;29;20027;-94
2022/01/03 08:00:45;;;;;;;21.08;2.75;;;7.00;99.90;;;;;;4943045;29;20178;-93
2022/01/03 08:03:11;;;;;;;21.17;2.30;;;7.00;99.90;;;;;;4945080;29;20034;-96
2022/01/03 08:05:37;;;;;;;13.00;1.80;;;7.00;99.90;;;;;;4947233;29;20027;-94
2022/01/03 08:08:05;;;;;;;13.48;2.28;;;6.90;99.90;;;;;;4953182;29;20027;-95
2022/01/03 08:10:32;;;;;;;17.45;1.90;;;6.90;99.90;;;;;;4952645;29;20023;-95
2022/01/03 08:13:06;;;;;;;14.52;2.10;;;6.90;99.90;;;;;;4952395;29;20493;-95
2022/01/03 08:15:35;;;;;;;28.10;3.20;;;6.90;99.90;;;;;;4948041;29;20142;-96
2022/01/03 08:18:02;;;;;;;10.35;2.15;;;7.00;99.90;;;;;;4954170;29;20038;-94
2022/01/03 08:20:28;;;;;;;15.75;1.70;;;7.00;99.90;;;;;;4950265;29;20027;-94
2022/01/03 08:23:00;;;;;;;16.70;2.80;;;6.90;99.90;;;;;;4979013;28;20050;-96
2022/01/03 08:25:26;;;;;;;13.77;1.75;;;7.00;99.90;;;;;;4966198;28;20031;-94
2022/01/03 08:27:53;;;;;;;17.63;1.98;;;6.90;99.90;;;;;;4969075;28;20027;-95
2022/01/03 08:30:19;;;;;;;21.75;2.17;;;6.90;99.90;;;;;;4967637;28;20027;-96
2022/01/03 08:32:45;;;;;;;14.93;2.28;;;6.90;99.90;;;;;;4967195;28;20058;-95
2022/01/03 08:35:11;;;;;;;13.82;2.22;;;6.90;99.90;;;;;;4968294;28;20034;-95
2022/01/03 08:37:37;;;;;;;18.40;1.80;;;6.90;99.90;;;;;;4967823;28;20031;-95
2022/01/03 08:40:06;;;;;;;12.75;2.50;;;6.90;99.90;;;;;;4970656;28;20066;-96
2022/01/03 08:42:34;;;;;;;16.35;1.98;;;6.90;99.90;;;;;;4976156;28;20033;-95
2022/01/03 08:45:02;;;;;;;12.07;1.63;;;6.90;99.90;;;;;;4974218;28;20026;-94
2022/01/03 08:47:30;;;;;;;22.08;2.08;;;6.80;99.90;;;;;;4977918;28;20054;-96
2022/01/03 08:49:57;;;;;;;18.60;2.70;;;6.80;99.90;;;;;;4975723;28;20019;-95
2022/01/03 08:52:49;;;;;;;22.30;3.03;;;6.80;99.90;;;;;;4962868;28;20019;-96
2022/01/03 08:55:18;;;;;;;13.18;2.00;;;6.80;99.90;;;;;;4973992;28;20097;-95
2022/01/03 08:57:51;;;;;;;13.52;1.63;;;6.90;99.90;;;;;;4987200;28;20034;-95
2022/01/03 09:00:18;;;;;;;9.05;1.58;;;6.90;99.90;;;;;;4971348;28;20067;-95
2022/01/03 09:02:44;;;;;;;12.88;1.75;;;6.90;99.90;;;;;;4967218;28;20030;-96
2022/01/03 09:05:10;;;;;;;27.30;2.95;;;6.90;99.90;;;;;;4965339;28;20022;-94
2022/01/03 09:07:36;;;;;;;5.20;1.50;;;7.00;99.90;;;;;;4964664;28;20076;-94
2022/01/03 09:10:05;;;;;;;16.30;1.90;;;7.00;99.90;;;;;;4965660;28;20042;-95
2022/01/03 09:12:31;;;;;;;10.77;1.55;;;7.00;99.90;;;;;;4965419;28;20396;-94
2022/01/03 09:14:58;;;;;;;12.20;1.88;;;7.00;99.90;;;;;;4964359;28;20035;-95
2022/01/03 09:17:24;;;;;;;16.70;2.30;;;7.00;99.90;;;;;;4963899;28;20026;-96
2022/01/03 09:19:53;;;;;;;12.48;2.00;;;7.00;99.90;;;;;;4966485;28;20054;-95
2022/01/03 09:22:25;;;;;;;20.45;1.83;;;7.00;99.90;;;;;;4956956;29;20047;-94
2022/01/03 09:30:15;;;;;;;12.00;1.23;;;7.20;99.90;;;;;;4965048;29;20069;-94
2022/01/03 09:32:41;;;;;;;9.23;1.30;;;7.20;99.90;;;;;;4950052;29;20052;-95
2022/01/03 09:35:08;;;;;;;11.55;1.70;;;7.30;99.90;;;;;;4950953;29;20035;-94
2022/01/03 09:37:36;;;;;;;10.00;1.27;;;7.40;99.90;;;;;;4953699;29;20047;-94
2022/01/03 09:40:05;;;;;;;10.73;1.40;;;7.40;99.90;;;;;;4955598;29;20023;-94
2022/01/03 09:42:34;;;;;;;14.98;2.40;;;7.50;99.90;;;;;;4951525;29;20578;-94
2022/01/03 09:45:13;;;;;;;10.18;1.85;;;7.60;99.90;;;;;;4949790;29;20035;-96
2022/01/03 09:47:43;;;;;;;16.27;1.88;;;7.70;99.90;;;;;;4958104;29;20031;-94
2022/01/03 09:50:10;;;;;;;15.68;1.67;;;7.80;99.90;;;;;;4957383;29;20107;-94
2022/01/03 09:52:39;;;;;;;11.70;1.75;;;7.90;99.90;;;;;;4944588;29;20462;-95
2022/01/03 09:55:06;;;;;;;15.43;2.35;;;8.00;99.90;;;;;;4946433;29;20099;-95
2022/01/03 09:57:33;;;;;;;6.85;1.58;;;8.20;99.90;;;;;;4947466;29;20057;-95
2022/01/03 10:00:04;;;;;;;13.32;1.80;;;8.30;99.90;;;;;;4966362;29;20040;-94
2022/01/03 10:02:31;;;;;;;10.07;1.58;;;8.40;99.90;;;;;;4950914;29;20066;-96
2022/01/03 10:04:59;;;;;;;18.80;2.20;;;8.60;99.90;;;;;;4952141;29;20023;-93
2022/01/03 10:07:27;;;;;;;13.30;1.50;;;8.80;99.90;;;;;;4948886;29;20035;-93
2022/01/03 10:09:54;;;;;;;12.43;1.70;;;8.90;99.90;;;;;;4952607;29;20012;-95
2022/01/03 10:12:20;;;;;;;12.60;1.45;;;9.00;99.90;;;;;;4952463;29;20023;-95
2022/01/03 10:14:46;;;;;;;18.52;2.67;;;9.20;99.90;;;;;;4947945;29;20042;-95
2022/01/03 10:17:12;;;;;;;12.10;1.83;;;9.30;99.90;;;;;;4949360;29;20024;-96
2022/01/03 10:20:02;;;;;;;15.48;2.03;;;9.50;99.90;;;;;;4949982;29;20066;-94
2022/01/03 10:22:32;;;;;;;22.70;2.40;;;9.70;99.90;;;;;;4947987;29;20055;-95
2022/01/03 10:25:00;;;;;;;10.45;1.20;;;9.80;99.90;;;;;;4947406;29;20070;-94
2022/01/03 10:27:43;;;;;;;10.32;1.92;;;10.00;99.90;;;;;;4949061;29;20027;-94
2022/01/03 10:30:10;;;;;;;17.10;2.25;;;10.20;99.90;;;;;;4948422;29;20031;-94
2022/01/03 10:32:36;;;;;;;13.60;2.17;;;10.40;99.90;;;;;;4945622;29;20039;-95
2022/01/03 10:35:17;;;;;;;11.65;1.90;;;10.50;99.90;;;;;;4947042;29;20031;-93
2022/01/03 10:37:44;;;;;;;8.27;1.77;;;10.60;99.90;;;;;;4946732;29;20130;-93
2022/01/03 10:40:25;;;;;;;13.68;2.65;;;10.70;99.90;;;;;;4945468;29;20039;-94
2022/01/03 10:42:52;;;;;;;12.27;2.15;;;10.90;99.90;;;;;;4944336;29;20031;-94
2022/01/03 10:45:33;;;;;;;13.20;2.08;;;11.00;99.90;;;;;;4943487;29;20039;-95
2022/01/03 10:48:00;;;;;;;16.45;2.65;;;11.20;99.90;;;;;;4943971;29;20070;-94
2022/01/03 10:50:27;;;;;;;12.80;2.00;;;11.30;99.90;;;;;;4944047;29;20027;-93
2022/01/03 10:52:53;;;;;;;15.68;2.53;;;11.40;99.90;;;;;;4948762;29;20042;-93
2022/01/03 10:55:25;;;;;;;12.90;2.58;;;11.40;99.90;;;;;;4943566;29;20037;-93
2022/01/03 10:58:02;;;;;;;19.02;2.45;;;11.60;99.90;;;;;;4943173;29;20047;-94
2022/01/03 11:00:34;;;;;;;23.05;2.83;;;11.60;99.90;;;;;;4942346;29;20093;-91
2022/01/03 11:03:12;;;;;;;16.70;2.40;;;11.80;99.90;;;;;;4942445;29;20045;-93
2022/01/03 11:05:46;;;;;;;22.02;3.75;;;11.90;99.90;;;;;;4942316;29;20037;-92
2022/01/03 11:11:05;;;;;;;18.40;2.55;;;12.20;99.70;;;;;;4959289;29;20038;-95
2022/01/03 11:13:32;;;;;;;13.20;2.45;;;12.30;98.90;;;;;;4942859;29;20078;-94
2022/01/03 11:16:00;;;;;;;15.35;2.35;;;12.50;99.00;;;;;;4942781;29;20500;-94
2022/01/03 11:18:31;;;;;;;19.85;2.25;;;12.60;98.00;;;;;;4943677;29;20030;-96
2022/01/03 11:21:04;;;;;;;20.50;4.93;;;12.60;97.50;;;;;;4941906;29;20035;-96
2022/01/03 11:23:30;;;;;;;15.40;2.33;;;12.80;97.40;;;;;;4942930;29;20052;-95
2022/01/03 11:25:55;;;;;;;14.27;2.33;;;12.90;96.60;;;;;;4945038;29;20062;-94
2022/01/03 11:28:24;;;;;;;15.73;3.03;;;13.10;96.10;;;;;;4942699;29;20038;-94
2022/01/03 11:30:52;;;;;;;19.98;3.53;;;13.10;95.20;;;;;;4941596;29;20106;-92
2022/01/03 11:33:19;;;;;;;16.55;2.45;;;13.20;95.00;;;;;;4942005;29;20477;-94
2022/01/03 11:35:50;;;;;;;16.70;2.45;;;13.20;94.10;;;;;;4941645;29;20043;-94
2022/01/03 11:38:22;;;;;;;16.05;3.05;;;13.20;93.50;;;;;;4941291;29;20134;-94
2022/01/03 11:40:49;;;;;;;16.92;2.70;;;13.30;93.60;;;;;;4941869;29;20607;-94
2022/01/03 11:43:15;;;;;;;22.00;4.07;;;13.40;93.10;;;;;;4941413;29;20042;-93
2022/01/03 11:45:41;;;;;;;19.30;2.72;;;13.60;93.00;;;;;;4940915;29;20029;-93
2022/01/03 11:48:09;;;;;;;11.98;2.08;;;13.60;92.30;;;;;;4941155;29;20030;-93
2022/01/03 11:50:39;;;;;;;14.65;3.22;;;13.80;92.00;;;;;;4941434;29;20027;-94
2022/01/03 11:53:07;;;;;;;11.57;2.22;;;13.90;91.70;;;;;;4938209;29;20023;-95
2022/01/03 11:55:37;;;;;;;17.60;2.72;;;14.00;90.80;;;;;;4942312;29;20126;-95
2022/01/03 12:06:05;;;;;;;19.02;2.75;;;13.60;90.30;;;;;;4959267;29;20042;-96
2022/01/03 12:08:36;;;;;;;19.15;4.32;;;13.10;90.80;;;;;;4942131;29;20026;-94
2022/01/03 12:11:21;;;;;;;15.35;2.55;;;12.80;91.50;;;;;;4942297;29;20031;-94
2022/01/03 12:13:48;;;;;;;17.20;2.65;;;12.40;92.10;;;;;;4940858;29;20038;-96
2022/01/03 12:16:15;;;;;;;16.65;2.55;;;12.10;92.70;;;;;;4940552;29;20054;-95
2022/01/03 12:18:57;;;;;;;20.48;3.15;;;12.00;93.20;;;;;;4940874;29;20082;-94
2022/01/03 12:21:59;;;;;;;13.35;2.55;;;12.00;93.80;;;;;;4940692;28;20027;-91
2022/01/03 12:24:52;;;;;;;18.20;2.50;;;12.00;93.80;;;;;;4946697;28;20121;-93
2022/01/03 12:27:23;;;;;;;14.68;2.65;;;11.80;94.10;;;;;;4959697;28;20039;-92
2022/01/03 12:29:55;;;;;;;12.63;1.80;;;11.80;94.50;;;;;;4959076;28;20121;-93
2022/01/03 12:32:36;;;;;;;20.00;3.25;;;11.90;94.60;;;;;;4958807;28;20057;-95
2022/01/03 12:35:08;;;;;;;8.35;1.90;;;12.20;94.70;;;;;;4959334;28;20031;-92
2022/01/03 12:37:35;;;;;;;15.27;2.42;;;12.20;94.40;;;;;;4959416;28;20043;-93
2022/01/03 12:40:04;;;;;;;15.45;2.30;;;12.00;94.00;;;;;;4959641;28;20039;-95
2022/01/03 12:42:51;;;;;;;22.50;3.20;;;11.80;94.40;;;;;;4959533;28;20534;-91
2022/01/03 12:45:47;;;;;;;16.27;2.63;;;11.80;95.00;;;;;;4959640;28;20070;-93
2022/01/03 12:48:15;;;;;;;14.63;2.53;;;12.00;95.30;;;;;;4959210;28;20026;-94
2022/01/03 12:50:48;;;;;;;19.98;3.28;;;12.40;95.20;;;;;;4962671;28;20215;-93
2022/01/03 12:53:23;;;;;;;18.48;2.30;;;12.60;94.60;;;;;;4963105;28;20058;-93
2022/01/03 12:55:55;;;;;;;23.52;2.60;;;13.00;94.10;;;;;;4959305;28;20061;-94
2022/01/03 12:58:21;;;;;;;7.50;1.27;;;13.10;93.40;;;;;;4958866;28;20018;-92
2022/01/03 13:00:59;;;;;;;17.23;2.50;;;13.50;92.90;;;;;;4958731;28;20042;-94
2022/01/03 13:03:43;;;;;;;8.95;1.98;;;13.70;92.20;;;;;;4958793;28;20093;-93
2022/01/03 13:06:43;;;;;;;13.50;2.63;;;14.00;91.40;;;;;;4962948;28;20078;-91
2022/01/03 13:09:14;;;;;;;17.38;2.38;;;14.20;90.70;;;;;;4940001;28;20042;-95
2022/01/03 13:11:43;;;;;;;14.88;2.63;;;14.50;89.80;;;;;;4960505;28;20029;-93
2022/01/03 13:14:19;;;;;;;15.43;2.80;;;14.20;88.40;;;;;;4960356;28;20023;-93
2022/01/03 13:16:46;;;;;;;18.35;2.97;;;13.80;88.40;;;;;;4960576;28;20397;-93
2022/01/03 13:19:17;;;;;;;24.17;2.80;;;13.20;89.70;;;;;;4966372;28;20023;-94
2022/01/03 13:21:43;;;;;;;15.20;3.00;;;12.70;90.70;;;;;;4962837;28;20082;-95